Time,TemperatureF,DewpointF,PressureIn,WindDirection,WindDirectionDegrees,WindSpeedMPH,WindSpeedGustMPH,Humidity,HourlyPrecipIn,Conditions,Clouds,dailyrainin,SoftwareType,DateUTC
2013-12-29 00:02:00,20.2,13.2,30.10,NNW,332,6.0,12.0,74,0.00,,OVC023,0.00,VWS V14.01,2013-12-29 06:02:00,
2013-12-29 00:07:00,20.0,13.1,30.10,NW,322,3.0,10.0,74,0.00,,OVC023,0.00,VWS V14.01,2013-12-29 06:07:00,
2013-12-29 00:12:00,20.0,13.1,30.10,NW,322,7.0,9.0,74,0.00,,OVC023,0.00,VWS V14.01,2013-12-29 06:12:00,
2013-12-29 00:17:00,19.7,12.5,30.10,NW,312,11.0,11.0,73,0.00,,OVC023,0.00,VWS V14.01,2013-12-29 06:17:00,
2013-12-29 00:22:00,19.2,12.0,30.10,North,350,9.0,13.0,73,0.00,,OVC023,0.00,VWS V14.01,2013-12-29 06:22:00,
2013-12-29 00:27:00,18.7,11.8,30.10,NNW,328,6.0,12.0,74,0.00,,OVC023,0.00,VWS V14.01,2013-12-29 06:27:00,
2013-12-29 00:32:00,18.4,11.5,30.10,NNW,336,6.0,16.0,74,0.00,,OVC023,0.00,VWS V14.01,2013-12-29 06:32:00,
2013-12-29 00:37:00,18.2,11.3,30.11,NW,307,10.0,11.0,74,0.00,,OVC023,0.00,VWS V14.01,2013-12-29 06:37:00,
2013-12-29 00:42:00,18.0,11.1,30.11,NNW,334,4.0,9.0,74,0.00,,,0.00,VWS V14.01,2013-12-29 06:42:00,
2013-12-29 00:47:00,17.7,10.5,30.11,NNW,340,6.0,15.0,73,0.00,,,0.00,VWS V14.01,2013-12-29 06:47:00,
2013-12-29 00:52:00,17.2,9.7,30.11,North,10,7.0,10.0,72,0.00,,,0.00,VWS V14.01,2013-12-29 06:52:00,
2013-12-29 00:57:00,16.6,9.2,30.11,WNW,288,16.0,16.0,72,0.00,,,0.00,VWS V14.01,2013-12-29 06:57:00,
2013-12-29 01:03:00,16.3,8.9,30.11,WNW,302,14.0,21.0,72,0.00,,,0.00,VWS V14.01,2013-12-29 07:03:00,
2013-12-29 01:07:00,16.0,8.6,30.11,NNW,336,11.0,16.0,72,0.00,,,0.00,VWS V14.01,2013-12-29 07:07:00,
2013-12-29 01:13:00,15.8,8.7,30.11,NW,325,12.0,13.0,73,0.00,,,0.00,VWS V14.01,2013-12-29 07:13:00,
2013-12-29 01:18:00,15.7,8.6,30.11,NNE,13,11.0,15.0,73,0.00,,,0.00,VWS V14.01,2013-12-29 07:18:00,
2013-12-29 01:23:00,15.5,8.7,30.11,NW,321,10.0,15.0,74,0.00,,,0.00,VWS V14.01,2013-12-29 07:23:00,
2013-12-29 01:28:00,15.5,8.7,30.13,NW,319,9.0,12.0,74,0.00,,,0.00,VWS V14.01,2013-12-29 07:28:00,
2013-12-29 01:33:00,14.8,7.4,30.12,NNW,328,8.0,13.0,72,0.00,,OVC024,0.00,VWS V14.01,2013-12-29 07:33:00,
2013-12-29 01:38:00,14.4,7.0,30.13,North,8,5.0,10.0,72,0.00,,OVC024,0.00,VWS V14.01,2013-12-29 07:38:00,
2013-12-29 01:43:00,14.3,7.2,30.13,North,354,3.0,8.0,73,0.00,,OVC024,0.00,VWS V14.01,2013-12-29 07:43:00,
2013-12-29 01:48:00,14.1,7.1,30.13,North,9,4.0,13.0,73,0.00,,OVC024,0.00,VWS V14.01,2013-12-29 07:48:00,
2013-12-29 01:53:00,14.1,7.3,30.14,NW,318,9.0,13.0,74,0.00,,OVC024,0.00,VWS V14.01,2013-12-29 07:53:00,
2013-12-29 01:58:00,14.1,7.3,30.14,NW,320,7.0,11.0,74,0.00,,OVC024,0.00,VWS V14.01,2013-12-29 07:58:00,
2013-12-29 02:03:00,13.8,6.8,30.14,NW,322,10.0,15.0,73,0.00,,OVC024,0.00,VWS V14.01,2013-12-29 08:03:00,
2013-12-29 02:08:00,13.4,6.1,30.14,North,10,11.0,20.0,72,0.00,,OVC024,0.00,VWS V14.01,2013-12-29 08:08:00,
2013-12-29 02:13:00,13.1,5.8,30.14,NW,321,9.0,13.0,72,0.00,,OVC024,0.00,VWS V14.01,2013-12-29 08:13:00,
2013-12-29 02:18:00,12.9,5.6,30.14,NE,37,16.0,16.0,72,0.00,,OVC024,0.00,VWS V14.01,2013-12-29 08:18:00,
2013-12-29 02:23:00,12.9,5.9,30.15,NW,324,9.0,13.0,73,0.00,,OVC024,0.00,VWS V14.01,2013-12-29 08:23:00,
2013-12-29 02:28:00,12.8,5.5,30.15,NNW,336,13.0,17.0,72,0.00,,OVC024,0.00,VWS V14.01,2013-12-29 08:28:00,
2013-12-29 02:33:00,12.4,4.8,30.16,NNW,336,9.0,14.0,71,0.00,,OVC024,0.00,VWS V14.01,2013-12-29 08:33:00,
2013-12-29 02:38:00,12.3,5.0,30.16,NW,324,9.0,13.0,72,0.00,,OVC024,0.00,VWS V14.01,2013-12-29 08:38:00,
2013-12-29 02:43:00,12.2,4.9,30.17,North,359,5.0,14.0,72,0.00,,OVC024,0.00,VWS V14.01,2013-12-29 08:43:00,
2013-12-29 02:48:00,12.0,4.7,30.17,NNW,327,6.0,9.0,72,0.00,,OVC024,0.00,VWS V14.01,2013-12-29 08:48:00,
2013-12-29 02:53:00,11.9,4.9,30.18,WNW,284,7.0,14.0,73,0.00,,OVC024,0.00,VWS V14.01,2013-12-29 08:53:00,
2013-12-29 02:58:00,12.0,5.3,30.18,North,354,6.0,12.0,74,0.00,,OVC024,0.00,VWS V14.01,2013-12-29 08:58:00,
2013-12-29 03:03:00,12.0,5.0,30.18,NW,318,8.0,11.0,73,0.00,,OVC024,0.00,VWS V14.01,2013-12-29 09:03:00,
2013-12-29 03:08:00,12.0,5.3,30.18,NW,316,8.0,10.0,74,0.00,,OVC024,0.00,VWS V14.01,2013-12-29 09:08:00,
2013-12-29 03:13:00,11.9,5.2,30.17,NNW,339,11.0,13.0,74,0.00,,OVC024,0.00,VWS V14.01,2013-12-29 09:13:00,
2013-12-29 03:18:00,11.9,5.2,30.18,North,4,6.0,13.0,74,0.00,,OVC024,0.00,VWS V14.01,2013-12-29 09:18:00,
2013-12-29 03:23:00,11.9,5.2,30.18,WNW,290,10.0,15.0,74,0.00,,OVC024,0.00,VWS V14.01,2013-12-29 09:23:00,
2013-12-29 03:29:00,11.8,5.1,30.18,North,359,5.0,11.0,74,0.00,,OVC024,0.00,VWS V14.01,2013-12-29 09:29:00,
2013-12-29 03:34:00,11.7,5.0,30.19,NNW,338,7.0,16.0,74,0.00,,OVC024,0.00,VWS V14.01,2013-12-29 09:34:00,
2013-12-29 03:39:00,11.6,4.9,30.19,NW,317,7.0,13.0,74,0.00,,OVC024,0.00,VWS V14.01,2013-12-29 09:39:00,
2013-12-29 03:44:00,11.4,4.7,30.20,NW,316,12.0,12.0,74,0.00,,,0.00,VWS V14.01,2013-12-29 09:44:00,
2013-12-29 03:49:00,11.3,4.6,30.20,NW,321,5.0,11.0,74,0.00,,,0.00,VWS V14.01,2013-12-29 09:49:00,
2013-12-29 03:54:00,11.2,4.5,30.20,NW,312,5.0,8.0,74,0.00,,,0.00,VWS V14.01,2013-12-29 09:54:00,
2013-12-29 03:59:00,11.0,4.1,30.21,North,350,6.0,16.0,73,0.00,,,0.00,VWS V14.01,2013-12-29 09:59:00,
2013-12-29 04:04:00,10.9,4.2,30.21,NW,326,8.0,12.0,74,0.00,,,0.00,VWS V14.01,2013-12-29 10:04:00,
2013-12-29 04:09:00,10.8,4.2,30.21,North,359,10.0,14.0,74,0.00,,,0.00,VWS V14.01,2013-12-29 10:09:00,
2013-12-29 04:14:00,10.9,4.6,30.21,NNW,346,1.0,7.0,75,0.00,,,0.00,VWS V14.01,2013-12-29 10:14:00,
2013-12-29 04:19:00,10.9,4.2,30.22,NNW,345,5.0,12.0,74,0.00,,,0.00,VWS V14.01,2013-12-29 10:19:00,
2013-12-29 04:24:00,10.8,4.2,30.22,NW,319,6.0,11.0,74,0.00,,,0.00,VWS V14.01,2013-12-29 10:24:00,
2013-12-29 04:29:00,10.9,4.2,30.22,NNW,343,4.0,15.0,74,0.00,,,0.00,VWS V14.01,2013-12-29 10:29:00,
2013-12-29 04:34:00,10.9,4.2,30.22,NNE,29,6.0,10.0,74,0.00,,,0.00,VWS V14.01,2013-12-29 10:34:00,
2013-12-29 04:39:00,10.9,4.2,30.22,North,354,6.0,9.0,74,0.00,,,0.00,VWS V14.01,2013-12-29 10:39:00,
2013-12-29 04:44:00,11.0,4.3,30.22,NW,314,7.0,12.0,74,0.00,,,0.00,VWS V14.01,2013-12-29 10:44:00,
2013-12-29 04:49:00,11.0,4.3,30.23,NNE,16,4.0,10.0,74,0.00,,,0.00,VWS V14.01,2013-12-29 10:49:00,
2013-12-29 04:54:00,11.0,4.6,30.24,North,8,3.0,7.0,75,0.00,,,0.00,VWS V14.01,2013-12-29 10:54:00,
2013-12-29 04:59:00,10.9,4.2,30.24,North,359,5.0,10.0,74,0.00,,,0.00,VWS V14.01,2013-12-29 10:59:00,
2013-12-29 05:04:00,10.7,3.8,30.24,NW,322,6.0,11.0,73,0.00,,,0.00,VWS V14.01,2013-12-29 11:04:00,
2013-12-29 05:09:00,10.6,3.7,30.24,WNW,295,4.0,10.0,73,0.00,,,0.00,VWS V14.01,2013-12-29 11:09:00,
2013-12-29 05:14:00,10.5,3.6,30.24,North,4,6.0,9.0,73,0.00,,,0.00,VWS V14.01,2013-12-29 11:14:00,
2013-12-29 05:19:00,10.5,3.9,30.25,NNE,33,6.0,8.0,74,0.00,,,0.00,VWS V14.01,2013-12-29 11:19:00,
2013-12-29 05:24:00,10.6,4.0,30.25,NW,306,5.0,9.0,74,0.00,,,0.00,VWS V14.01,2013-12-29 11:24:00,
2013-12-29 05:29:00,10.7,4.1,30.25,NW,324,7.0,10.0,74,0.00,,,0.00,VWS V14.01,2013-12-29 11:29:00,
2013-12-29 05:34:00,10.8,3.9,30.25,NNW,332,4.0,9.0,73,0.00,,,0.00,VWS V14.01,2013-12-29 11:34:00,
2013-12-29 05:39:00,10.7,3.5,30.25,NW,319,5.0,9.0,72,0.00,,,0.00,VWS V14.01,2013-12-29 11:39:00,
2013-12-29 05:44:00,10.5,3.3,30.25,North,354,6.0,8.0,72,0.00,,,0.00,VWS V14.01,2013-12-29 11:44:00,
2013-12-29 05:49:00,10.6,3.7,30.26,NW,321,8.0,15.0,73,0.00,,,0.00,VWS V14.01,2013-12-29 11:49:00,
2013-12-29 05:54:00,10.5,3.6,30.26,NW,326,8.0,10.0,73,0.00,,,0.00,VWS V14.01,2013-12-29 11:54:00,
2013-12-29 05:59:00,10.4,3.2,30.27,NW,326,6.0,15.0,72,0.00,,,0.00,VWS V14.01,2013-12-29 11:59:00,
2013-12-29 06:04:00,10.1,2.9,30.27,North,4,11.0,12.0,72,0.00,,,0.00,VWS V14.01,2013-12-29 12:04:00,
2013-12-29 06:09:00,9.7,2.2,30.27,NNE,18,13.0,19.0,71,0.00,,,0.00,VWS V14.01,2013-12-29 12:09:00,
2013-12-29 06:14:00,9.2,1.7,30.28,NNE,14,13.0,16.0,71,0.00,,,0.00,VWS V14.01,2013-12-29 12:14:00,
2013-12-29 06:20:00,9.0,1.5,30.28,NE,39,7.0,12.0,71,0.00,,,0.00,VWS V14.01,2013-12-29 12:20:00,
2013-12-29 06:25:00,8.9,1.7,30.29,NNE,12,9.0,12.0,72,0.00,,,0.00,VWS V14.01,2013-12-29 12:25:00,
2013-12-29 06:30:00,8.9,1.7,30.29,NW,318,13.0,13.0,72,0.00,,,0.00,VWS V14.01,2013-12-29 12:30:00,
2013-12-29 06:35:00,8.8,1.6,30.30,North,359,16.0,16.0,72,0.00,,BKN016,0.00,VWS V14.01,2013-12-29 12:35:00,
2013-12-29 06:40:00,8.2,0.4,30.30,NW,321,8.0,17.0,70,0.00,,BKN016,0.00,VWS V14.01,2013-12-29 12:40:00,
2013-12-29 06:45:00,8.0,0.6,30.30,NNW,335,5.0,12.0,71,0.00,,BKN016,0.00,VWS V14.01,2013-12-29 12:45:00,
2013-12-29 06:50:00,7.6,0.2,30.31,NW,314,7.0,9.0,71,0.00,,BKN016,0.00,VWS V14.01,2013-12-29 12:50:00,
2013-12-29 06:55:00,7.5,0.4,30.31,NW,325,8.0,9.0,72,0.00,,SCT016,0.00,VWS V14.01,2013-12-29 12:55:00,
2013-12-29 07:00:00,7.1,-0.3,30.31,North,10,4.0,13.0,71,0.00,,SCT016,0.00,VWS V14.01,2013-12-29 13:00:00,
2013-12-29 07:05:00,6.9,-0.5,30.31,NW,315,7.0,13.0,71,0.00,,SCT016,0.00,VWS V14.01,2013-12-29 13:05:00,
2013-12-29 07:10:00,6.9,-0.2,30.32,NNW,348,8.0,9.0,72,0.00,,SCT016,0.00,VWS V14.01,2013-12-29 13:10:00,
2013-12-29 07:15:00,6.9,-0.5,30.32,NNW,340,7.0,12.0,71,0.00,,SCT016,0.00,VWS V14.01,2013-12-29 13:15:00,
2013-12-29 07:20:00,6.9,-0.5,30.33,North,359,6.0,10.0,71,0.00,,SCT016,0.00,VWS V14.01,2013-12-29 13:20:00,
2013-12-29 07:25:00,6.9,-0.5,30.32,North,4,8.0,11.0,71,0.00,,SCT016,0.00,VWS V14.01,2013-12-29 13:25:00,
2013-12-29 07:30:00,6.8,-0.6,30.33,NNW,328,10.0,14.0,71,0.00,,SCT016,0.00,VWS V14.01,2013-12-29 13:30:00,
2013-12-29 07:35:00,6.7,-1.0,30.33,NW,312,4.0,8.0,70,0.00,,SCT016,0.00,VWS V14.01,2013-12-29 13:35:00,
2013-12-29 07:40:00,6.7,-0.7,30.33,NNW,346,4.0,4.0,71,0.00,,SCT016,0.00,VWS V14.01,2013-12-29 13:40:00,
2013-12-29 07:45:00,6.7,-0.7,30.34,NW,319,5.0,11.0,71,0.00,,SCT016,0.00,VWS V14.01,2013-12-29 13:45:00,
2013-12-29 07:50:00,6.4,-1.3,30.34,NW,309,4.0,11.0,70,0.00,,SCT016,0.00,VWS V14.01,2013-12-29 13:50:00,
2013-12-29 07:55:00,6.2,-1.8,30.34,North,354,8.0,11.0,69,0.00,,SCT016,0.00,VWS V14.01,2013-12-29 13:55:00,
2013-12-29 08:00:00,6.1,-2.2,30.34,North,9,6.0,15.0,68,0.00,,SCT016,0.00,VWS V14.01,2013-12-29 14:00:00,
2013-12-29 08:05:00,6.1,-2.2,30.34,NNW,328,13.0,15.0,68,0.00,,SCT016,0.00,VWS V14.01,2013-12-29 14:05:00,
2013-12-29 08:10:00,6.2,-2.1,30.35,NW,316,7.0,11.0,68,0.00,,SCT016,0.00,VWS V14.01,2013-12-29 14:10:00,
2013-12-29 08:15:00,6.3,-2.6,30.35,NE,50,9.0,13.0,66,0.00,,SCT016,0.00,VWS V14.01,2013-12-29 14:15:00,
2013-12-29 08:20:00,6.2,-3.7,30.35,North,359,6.0,13.0,63,0.00,,SCT016,0.00,VWS V14.01,2013-12-29 14:20:00,
2013-12-29 08:25:00,6.2,-4.0,30.35,NW,308,6.0,9.0,62,0.00,,SCT016,0.00,VWS V14.01,2013-12-29 14:25:00,
2013-12-29 08:30:00,6.3,-3.9,30.36,NW,323,7.0,8.0,62,0.00,,SCT016,0.00,VWS V14.01,2013-12-29 14:30:00,
2013-12-29 08:35:00,6.4,-3.5,30.36,NW,316,6.0,11.0,63,0.00,,BKN200,0.00,VWS V14.01,2013-12-29 14:35:00,
2013-12-29 08:40:00,6.4,-3.2,30.36,NW,321,9.0,11.0,64,0.00,,BKN200,0.00,VWS V14.01,2013-12-29 14:40:00,
2013-12-29 08:45:00,6.4,-3.5,30.35,NW,321,6.0,9.0,63,0.00,,BKN200,0.00,VWS V14.01,2013-12-29 14:45:00,
2013-12-29 08:50:00,6.5,-3.1,30.35,NNW,341,7.0,8.0,64,0.00,,BKN200,0.00,VWS V14.01,2013-12-29 14:50:00,
2013-12-29 08:55:00,6.7,-2.9,30.36,NW,310,5.0,6.0,64,0.00,,BKN200,0.00,VWS V14.01,2013-12-29 14:55:00,
2013-12-29 09:00:00,6.8,-3.1,30.36,NNW,340,7.0,7.0,63,0.00,,BKN200,0.00,VWS V14.01,2013-12-29 15:00:00,
2013-12-29 09:05:00,6.8,-3.5,30.37,NNW,333,5.0,9.0,62,0.00,,BKN200,0.00,VWS V14.01,2013-12-29 15:05:00,
2013-12-29 09:10:00,6.9,-4.0,30.37,NW,305,6.0,7.0,60,0.00,,BKN200,0.00,VWS V14.01,2013-12-29 15:10:00,
2013-12-29 09:15:00,7.2,-4.5,30.38,NNW,341,5.0,9.0,58,0.00,,BKN200,0.00,VWS V14.01,2013-12-29 15:15:00,
2013-12-29 09:20:00,7.1,-5.3,30.38,NW,322,7.0,8.0,56,0.00,,BKN200,0.00,VWS V14.01,2013-12-29 15:20:00,
2013-12-29 09:25:00,7.0,-5.4,30.38,WNW,302,8.0,12.0,56,0.00,,BKN200,0.00,VWS V14.01,2013-12-29 15:25:00,
2013-12-29 09:31:00,6.8,-5.9,30.38,NW,324,7.0,10.0,55,0.00,,BKN200,0.00,VWS V14.01,2013-12-29 15:31:00,
2013-12-29 09:36:00,6.9,-5.8,30.38,NW,322,6.0,7.0,55,0.00,,BKN200,0.00,VWS V14.01,2013-12-29 15:36:00,
2013-12-29 09:41:00,6.8,-6.3,30.39,NW,311,5.0,8.0,54,0.00,,BKN200,0.00,VWS V14.01,2013-12-29 15:41:00,
2013-12-29 09:46:00,6.8,-6.7,30.39,NNE,13,5.0,13.0,53,0.00,,BKN200,0.00,VWS V14.01,2013-12-29 15:46:00,
2013-12-29 09:51:00,7.1,-6.4,30.39,NW,310,10.0,10.0,53,0.00,,BKN200,0.00,VWS V14.01,2013-12-29 15:51:00,
2013-12-29 09:56:00,7.2,-6.7,30.39,NNW,341,4.0,7.0,52,0.00,,BKN200,0.00,VWS V14.01,2013-12-29 15:56:00,
2013-12-29 10:01:00,7.9,-6.1,30.39,WNW,303,8.0,8.0,52,0.00,,BKN200,0.00,VWS V14.01,2013-12-29 16:01:00,
2013-12-29 10:06:00,8.2,-7.9,30.39,NNE,29,5.0,11.0,47,0.00,,BKN200,0.00,VWS V14.01,2013-12-29 16:06:00,
2013-12-29 10:11:00,8.7,-7.8,30.39,North,354,5.0,10.0,46,0.00,,BKN200,0.00,VWS V14.01,2013-12-29 16:11:00,
2013-12-29 10:16:00,9.1,-6.2,30.39,North,359,5.0,13.0,49,0.00,,BKN200,0.00,VWS V14.01,2013-12-29 16:16:00,
2013-12-29 10:21:00,8.9,-6.8,30.40,NNW,330,7.0,12.0,48,0.00,,BKN200,0.00,VWS V14.01,2013-12-29 16:21:00,
2013-12-29 10:26:00,8.6,-7.1,30.40,WNW,291,6.0,8.0,48,0.00,,BKN200,0.00,VWS V14.01,2013-12-29 16:26:00,
2013-12-29 10:31:00,8.5,-7.2,30.41,NW,321,7.0,11.0,48,0.00,,BKN200,0.00,VWS V14.01,2013-12-29 16:31:00,
2013-12-29 10:36:00,8.1,-7.5,30.40,NW,324,9.0,14.0,48,0.00,,BKN200,0.00,VWS V14.01,2013-12-29 16:36:00,
2013-12-29 10:41:00,8.0,-7.6,30.41,NNW,329,5.0,9.0,48,0.00,,BKN200,0.00,VWS V14.01,2013-12-29 16:41:00,
2013-12-29 10:46:00,7.9,-7.7,30.41,NNW,331,6.0,8.0,48,0.00,,BKN200,0.00,VWS V14.01,2013-12-29 16:46:00,
2013-12-29 10:51:00,8.6,-7.1,30.41,NW,325,6.0,8.0,48,0.00,,BKN200,0.00,VWS V14.01,2013-12-29 16:51:00,
2013-12-29 10:56:00,8.6,-8.4,30.41,NNW,347,5.0,9.0,45,0.00,,BKN200,0.00,VWS V14.01,2013-12-29 16:56:00,
2013-12-29 11:01:00,9.1,-7.0,30.41,NW,310,7.0,11.0,47,0.00,,BKN200,0.00,VWS V14.01,2013-12-29 17:01:00,
2013-12-29 11:06:00,9.2,-8.3,30.41,NNW,338,6.0,14.0,44,0.00,,BKN200,0.00,VWS V14.01,2013-12-29 17:06:00,
2013-12-29 11:11:00,8.7,-9.7,30.41,NNW,339,5.0,15.0,42,0.00,,BKN200,0.00,VWS V14.01,2013-12-29 17:11:00,
2013-12-29 11:16:00,8.9,-9.0,30.41,North,4,4.0,7.0,43,0.00,,BKN200,0.00,VWS V14.01,2013-12-29 17:16:00,
2013-12-29 11:21:00,9.4,-8.1,30.41,NNW,339,6.0,13.0,44,0.00,,BKN200,0.00,VWS V14.01,2013-12-29 17:21:00,
2013-12-29 11:26:00,9.5,-8.5,30.41,NNW,328,4.0,6.0,43,0.00,,BKN200,0.00,VWS V14.01,2013-12-29 17:26:00,
2013-12-29 11:31:00,9.8,-7.7,30.41,North,359,9.0,9.0,44,0.00,,SCT200,0.00,VWS V14.01,2013-12-29 17:31:00,
2013-12-29 11:36:00,9.9,-7.2,30.41,NW,315,8.0,11.0,45,0.00,,SCT200,0.00,VWS V14.01,2013-12-29 17:36:00,
2013-12-29 11:41:00,9.8,-8.7,30.40,NNW,339,9.0,13.0,42,0.00,,SCT200,0.00,VWS V14.01,2013-12-29 17:41:00,
2013-12-29 11:46:00,10.0,-8.0,30.40,North,8,9.0,13.0,43,0.00,,SCT200,0.00,VWS V14.01,2013-12-29 17:46:00,
2013-12-29 11:51:00,9.5,-9.0,30.40,NNW,345,10.0,13.0,42,0.00,,SCT200,0.00,VWS V14.01,2013-12-29 17:51:00,
2013-12-29 11:56:00,9.6,-9.9,30.39,NNW,347,9.0,16.0,40,0.00,,SCT200,0.00,VWS V14.01,2013-12-29 17:56:00,
2013-12-29 12:01:00,9.8,-9.2,30.39,NNW,343,9.0,11.0,41,0.00,,SCT200,0.00,VWS V14.01,2013-12-29 18:01:00,
2013-12-29 12:06:00,9.7,-9.3,30.39,NNW,341,5.0,8.0,41,0.00,,SCT200,0.00,VWS V14.01,2013-12-29 18:06:00,
2013-12-29 12:11:00,10.1,-7.9,30.39,NW,309,4.0,9.0,43,0.00,,SCT200,0.00,VWS V14.01,2013-12-29 18:11:00,
2013-12-29 12:16:00,10.4,-8.1,30.39,West,270,4.0,8.0,42,0.00,,SCT200,0.00,VWS V14.01,2013-12-29 18:16:00,
2013-12-29 12:21:00,10.7,-7.4,30.39,WNW,300,6.0,9.0,43,0.00,,SCT200,0.00,VWS V14.01,2013-12-29 18:21:00,
2013-12-29 12:26:00,10.6,-7.9,30.39,NW,325,8.0,9.0,42,0.00,,SCT200,0.00,VWS V14.01,2013-12-29 18:26:00,
2013-12-29 12:31:00,10.8,-7.8,30.38,NNW,330,7.0,9.0,42,0.00,,FEW200,0.00,VWS V14.01,2013-12-29 18:31:00,
2013-12-29 12:36:00,11.2,-7.4,30.39,North,4,3.0,9.0,42,0.00,,FEW200,0.00,VWS V14.01,2013-12-29 18:36:00,
2013-12-29 12:41:00,11.5,-8.1,30.38,NNE,12,7.0,11.0,40,0.00,,FEW200,0.00,VWS V14.01,2013-12-29 18:41:00,
2013-12-29 12:46:00,11.4,-7.7,30.38,WNW,289,7.0,8.0,41,0.00,,FEW200,0.00,VWS V14.01,2013-12-29 18:46:00,
2013-12-29 12:51:00,11.8,-7.3,30.38,NW,318,2.0,7.0,41,0.00,,FEW200,0.00,VWS V14.01,2013-12-29 18:51:00,
2013-12-29 12:57:00,11.8,-7.9,30.38,NNW,327,8.0,9.0,40,0.00,,FEW200,0.00,VWS V14.01,2013-12-29 18:57:00,
2013-12-29 13:02:00,12.2,-6.5,30.38,WNW,300,4.0,7.0,42,0.00,,FEW200,0.00,VWS V14.01,2013-12-29 19:02:00,
2013-12-29 13:07:00,12.5,-7.2,30.38,North,354,4.0,11.0,40,0.00,,FEW200,0.00,VWS V14.01,2013-12-29 19:07:00,
2013-12-29 13:12:00,12.2,-9.1,30.38,NW,324,5.0,13.0,37,0.00,,FEW200,0.00,VWS V14.01,2013-12-29 19:12:00,
2013-12-29 13:17:00,12.4,-8.4,30.38,NNW,334,3.0,12.0,38,0.00,,FEW200,0.00,VWS V14.01,2013-12-29 19:17:00,
2013-12-29 13:22:00,12.5,-8.3,30.38,NW,313,3.0,8.0,38,0.00,,FEW200,0.00,VWS V14.01,2013-12-29 19:22:00,
2013-12-29 13:27:00,12.6,-8.2,30.37,North,4,8.0,11.0,38,0.00,,FEW200,0.00,VWS V14.01,2013-12-29 19:27:00,
2013-12-29 13:32:00,12.6,-8.7,30.37,North,4,12.0,16.0,37,0.00,,FEW200,0.00,VWS V14.01,2013-12-29 19:32:00,
2013-12-29 13:37:00,12.7,-7.6,30.38,NNW,347,6.0,7.0,39,0.00,,FEW200,0.00,VWS V14.01,2013-12-29 19:37:00,
2013-12-29 13:42:00,13.1,-7.7,30.37,North,8,5.0,7.0,38,0.00,,FEW200,0.00,VWS V14.01,2013-12-29 19:42:00,
2013-12-29 13:47:00,13.3,-7.6,30.37,NNW,342,6.0,11.0,38,0.00,,FEW200,0.00,VWS V14.01,2013-12-29 19:47:00,
2013-12-29 13:52:00,13.7,-7.2,30.37,NNW,344,4.0,8.0,38,0.00,,FEW200,0.00,VWS V14.01,2013-12-29 19:52:00,
2013-12-29 13:57:00,13.6,-7.8,30.37,NNW,329,6.0,6.0,37,0.00,,FEW200,0.00,VWS V14.01,2013-12-29 19:57:00,
2013-12-29 14:02:00,13.8,-7.1,30.37,NNE,14,5.0,8.0,38,0.00,,FEW200,0.00,VWS V14.01,2013-12-29 20:02:00,
2013-12-29 14:07:00,13.6,-9.0,30.37,NW,326,6.0,8.0,35,0.00,,FEW200,0.00,VWS V14.01,2013-12-29 20:07:00,
2013-12-29 14:12:00,13.4,-8.0,30.37,NNW,329,3.0,11.0,37,0.00,,FEW200,0.00,VWS V14.01,2013-12-29 20:12:00,
2013-12-29 14:17:00,13.7,-7.2,30.37,NNE,29,7.0,11.0,38,0.00,,FEW200,0.00,VWS V14.01,2013-12-29 20:17:00,
2013-12-29 14:22:00,13.8,-8.2,30.37,North,354,6.0,9.0,36,0.00,,FEW200,0.00,VWS V14.01,2013-12-29 20:22:00,
2013-12-29 14:27:00,13.6,-8.4,30.37,NNE,12,9.0,14.0,36,0.00,,FEW200,0.00,VWS V14.01,2013-12-29 20:27:00,
2013-12-29 14:32:00,13.7,-8.3,30.38,NW,316,6.0,8.0,36,0.00,,FEW200,0.00,VWS V14.01,2013-12-29 20:32:00,
2013-12-29 14:37:00,13.8,-8.2,30.38,NNW,327,6.0,10.0,36,0.00,,FEW200,0.00,VWS V14.01,2013-12-29 20:37:00,
2013-12-29 14:42:00,13.9,-7.6,30.38,NNW,346,2.0,6.0,37,0.00,,FEW200,0.00,VWS V14.01,2013-12-29 20:42:00,
2013-12-29 14:47:00,14.2,-8.4,30.38,WNW,301,8.0,10.0,35,0.00,,FEW200,0.00,VWS V14.01,2013-12-29 20:47:00,
2013-12-29 14:52:00,13.8,-8.8,30.37,NNW,333,8.0,9.0,35,0.00,,FEW200,0.00,VWS V14.01,2013-12-29 20:52:00,
2013-12-29 14:57:00,13.6,-8.4,30.38,NNE,31,5.0,8.0,36,0.00,,FEW200,0.00,VWS V14.01,2013-12-29 20:57:00,
2013-12-29 15:02:00,13.7,-8.3,30.38,North,4,3.0,5.0,36,0.00,,FEW200,0.00,VWS V14.01,2013-12-29 21:02:00,
2013-12-29 15:07:00,13.8,-8.2,30.38,NNW,330,6.0,11.0,36,0.00,,FEW200,0.00,VWS V14.01,2013-12-29 21:07:00,
2013-12-29 15:12:00,13.5,-8.5,30.38,NW,318,2.0,6.0,36,0.00,,FEW200,0.00,VWS V14.01,2013-12-29 21:12:00,
2013-12-29 15:17:00,13.8,-8.8,30.38,NNW,330,5.0,11.0,35,0.00,,FEW200,0.00,VWS V14.01,2013-12-29 21:17:00,
2013-12-29 15:22:00,13.7,-9.5,30.38,NNW,337,7.0,8.0,34,0.00,,FEW200,0.00,VWS V14.01,2013-12-29 21:22:00,
2013-12-29 15:27:00,13.7,-8.9,30.39,North,359,2.0,7.0,35,0.00,,FEW200,0.00,VWS V14.01,2013-12-29 21:27:00,
2013-12-29 15:32:00,13.6,-10.1,30.39,NW,304,6.0,10.0,33,0.00,,FEW200,0.00,VWS V14.01,2013-12-29 21:32:00,
2013-12-29 15:37:00,13.6,-9.6,30.39,NNW,341,3.0,8.0,34,0.00,,FEW200,0.00,VWS V14.01,2013-12-29 21:37:00,
2013-12-29 15:42:00,13.7,-9.5,30.39,NNW,328,7.0,7.0,34,0.00,,FEW200,0.00,VWS V14.01,2013-12-29 21:42:00,
2013-12-29 15:47:00,13.8,-10.0,30.39,WNW,291,6.0,7.0,33,0.00,,FEW200,0.00,VWS V14.01,2013-12-29 21:47:00,
2013-12-29 15:52:00,13.7,-9.5,30.39,North,359,3.0,8.0,34,0.00,,FEW200,0.00,VWS V14.01,2013-12-29 21:52:00,
2013-12-29 15:57:00,13.7,-9.5,30.39,NNW,345,5.0,7.0,34,0.00,,FEW200,0.00,VWS V14.01,2013-12-29 21:57:00,
2013-12-29 16:02:00,13.5,-9.6,30.39,NNW,338,6.0,8.0,34,0.00,,FEW200,0.00,VWS V14.01,2013-12-29 22:02:00,
2013-12-29 16:08:00,13.4,-9.7,30.39,North,10,3.0,5.0,34,0.00,,FEW200,0.00,VWS V14.01,2013-12-29 22:08:00,
2013-12-29 16:13:00,13.5,-9.6,30.39,NNW,347,4.0,8.0,34,0.00,,FEW200,0.00,VWS V14.01,2013-12-29 22:13:00,
2013-12-29 16:18:00,13.3,-9.8,30.40,WNW,295,4.0,7.0,34,0.00,,FEW200,0.00,VWS V14.01,2013-12-29 22:18:00,
2013-12-29 16:23:00,13.2,-9.9,30.40,NNW,341,5.0,7.0,34,0.00,,FEW200,0.00,VWS V14.01,2013-12-29 22:23:00,
2013-12-29 16:28:00,13.1,-10.0,30.40,NW,312,5.0,9.0,34,0.00,,FEW200,0.00,VWS V14.01,2013-12-29 22:28:00,
2013-12-29 16:33:00,12.8,-9.7,30.40,NNW,336,2.0,7.0,35,0.00,,FEW200,0.00,VWS V14.01,2013-12-29 22:33:00,
2013-12-29 16:38:00,12.6,-9.3,30.40,NW,318,6.0,6.0,36,0.00,,FEW200,0.00,VWS V14.01,2013-12-29 22:38:00,
2013-12-29 16:43:00,12.5,-9.4,30.40,NNE,12,1.0,5.0,36,0.00,,FEW200,0.00,VWS V14.01,2013-12-29 22:43:00,
2013-12-29 16:48:00,12.4,-8.4,30.40,North,4,4.0,6.0,38,0.00,,FEW200,0.00,VWS V14.01,2013-12-29 22:48:00,
2013-12-29 16:53:00,12.2,-9.1,30.40,NNW,339,2.0,6.0,37,0.00,,FEW200,0.00,VWS V14.01,2013-12-29 22:53:00,
2013-12-29 16:58:00,12.1,-9.2,30.40,NNE,29,2.0,2.0,37,0.00,,FEW200,0.00,VWS V14.01,2013-12-29 22:58:00,
2013-12-29 17:03:00,11.9,-8.3,30.40,NNE,13,6.0,6.0,39,0.00,,FEW200,0.00,VWS V14.01,2013-12-29 23:03:00,
2013-12-29 17:08:00,11.7,-7.9,30.40,NNE,19,2.0,4.0,40,0.00,,FEW200,0.00,VWS V14.01,2013-12-29 23:08:00,
2013-12-29 17:13:00,11.5,-7.6,30.40,NNE,14,1.0,2.0,41,0.00,,FEW200,0.00,VWS V14.01,2013-12-29 23:13:00,
2013-12-29 17:18:00,11.4,-7.7,30.40,NNE,18,1.0,2.0,41,0.00,,FEW200,0.00,VWS V14.01,2013-12-29 23:18:00,
2013-12-29 17:23:00,11.1,-8.0,30.40,NNE,26,1.0,4.0,41,0.00,,FEW200,0.00,VWS V14.01,2013-12-29 23:23:00,
2013-12-29 17:28:00,10.9,-8.2,30.40,NNE,12,3.0,4.0,41,0.00,,FEW200,0.00,VWS V14.01,2013-12-29 23:28:00,
2013-12-29 17:33:00,10.7,-7.9,30.40,North,10,1.0,5.0,42,0.00,,FEW200,0.00,VWS V14.01,2013-12-29 23:33:00,
2013-12-29 17:38:00,10.5,-7.6,30.40,North,4,0.0,2.0,43,0.00,,FEW200,0.00,VWS V14.01,2013-12-29 23:38:00,
2013-12-29 17:43:00,10.3,-8.2,30.39,NNE,12,0.0,3.0,42,0.00,,FEW200,0.00,VWS V14.01,2013-12-29 23:43:00,
2013-12-29 17:48:00,10.1,-7.9,30.40,NNE,12,1.0,2.0,43,0.00,,FEW200,0.00,VWS V14.01,2013-12-29 23:48:00,
2013-12-29 17:53:00,9.9,-8.1,30.39,NNE,12,0.0,4.0,43,0.00,,FEW200,0.00,VWS V14.01,2013-12-29 23:53:00,
2013-12-29 17:58:00,9.8,-8.2,30.40,NNE,12,1.0,2.0,43,0.00,,FEW200,0.00,VWS V14.01,2013-12-29 23:58:00,
2013-12-29 18:03:00,9.7,-8.3,30.39,NNE,23,3.0,4.0,43,0.00,,FEW200,0.00,VWS V14.01,2013-12-30 00:03:00,
2013-12-29 18:08:00,9.5,-7.6,30.39,NNE,23,0.0,1.0,45,0.00,,FEW200,0.00,VWS V14.01,2013-12-30 00:08:00,
2013-12-29 18:14:00,9.4,-8.1,30.40,NNE,22,2.0,2.0,44,0.00,,FEW200,0.00,VWS V14.01,2013-12-30 00:14:00,
2013-12-29 18:19:00,9.3,-7.7,30.39,NNE,22,1.0,2.0,45,0.00,,FEW200,0.00,VWS V14.01,2013-12-30 00:19:00,
2013-12-29 18:24:00,9.1,-7.5,30.39,NNE,22,0.0,1.0,46,0.00,,FEW200,0.00,VWS V14.01,2013-12-30 00:24:00,
2013-12-29 18:29:00,9.0,-7.6,30.40,NNE,16,1.0,2.0,46,0.00,,FEW200,0.00,VWS V14.01,2013-12-30 00:29:00,
2013-12-29 18:34:00,8.9,-7.7,30.40,NNE,16,0.0,1.0,46,0.00,,FEW200,0.00,VWS V14.01,2013-12-30 00:34:00,
2013-12-29 18:39:00,8.9,-7.7,30.40,NNE,16,2.0,3.0,46,0.00,,FEW200,0.00,VWS V14.01,2013-12-30 00:39:00,
2013-12-29 18:44:00,8.7,-7.4,30.40,NNE,16,2.0,2.0,47,0.00,,FEW200,0.00,VWS V14.01,2013-12-30 00:44:00,
2013-12-29 18:49:00,8.6,-7.5,30.40,NNE,16,1.0,2.0,47,0.00,,FEW200,0.00,VWS V14.01,2013-12-30 00:49:00,
2013-12-29 18:54:00,8.6,-7.5,30.40,NNE,16,0.0,0.0,47,0.00,,FEW200,0.00,VWS V14.01,2013-12-30 00:54:00,
2013-12-29 18:59:00,8.5,-7.6,30.40,NNE,16,0.0,0.0,47,0.00,,FEW200,0.00,VWS V14.01,2013-12-30 00:59:00,
2013-12-29 19:04:00,8.5,-8.0,30.40,NNE,16,1.0,2.0,46,0.00,,FEW200,0.00,VWS V14.01,2013-12-30 01:04:00,
2013-12-29 19:09:00,8.6,-7.9,30.40,NNE,16,0.0,2.0,46,0.00,,FEW200,0.00,VWS V14.01,2013-12-30 01:09:00,
2013-12-29 19:14:00,8.7,-7.8,30.40,NNE,16,0.0,1.0,46,0.00,,FEW200,0.00,VWS V14.01,2013-12-30 01:14:00,
2013-12-29 19:19:00,8.8,-8.2,30.41,NNE,16,0.0,0.0,45,0.00,,FEW200,0.00,VWS V14.01,2013-12-30 01:19:00,
2013-12-29 19:24:00,8.7,-8.3,30.41,NNE,16,1.0,2.0,45,0.00,,FEW200,0.00,VWS V14.01,2013-12-30 01:24:00,
2013-12-29 19:29:00,8.7,-7.8,30.41,NNE,16,0.0,0.0,46,0.00,,FEW200,0.00,VWS V14.01,2013-12-30 01:29:00,
2013-12-29 19:34:00,8.6,-8.4,30.41,NNE,16,1.0,2.0,45,0.00,,FEW200,0.00,VWS V14.01,2013-12-30 01:34:00,
2013-12-29 19:35:00,8.6,-8.4,30.41,NNE,16,0.0,1.0,45,0.00,,FEW200,0.00,VWS V14.01,2013-12-30 01:35:00,
2013-12-29 19:40:00,8.5,-8.5,30.40,NNE,12,1.0,2.0,45,0.00,,FEW200,0.00,VWS V14.01,2013-12-30 01:40:00,
2013-12-29 19:45:00,8.4,-8.6,30.41,NNE,12,0.0,0.0,45,0.00,,FEW200,0.00,VWS V14.01,2013-12-30 01:45:00,
2013-12-29 19:50:00,8.2,-8.8,30.41,NNE,12,1.0,1.0,45,0.00,,FEW200,0.00,VWS V14.01,2013-12-30 01:50:00,
2013-12-29 19:55:00,8.1,-7.9,30.40,NNE,12,0.0,1.0,47,0.00,,FEW200,0.00,VWS V14.01,2013-12-30 01:55:00,
2013-12-29 20:00:00,8.0,-7.6,30.41,NNE,12,0.0,0.0,48,0.00,,FEW200,0.00,VWS V14.01,2013-12-30 02:00:00,
2013-12-29 20:05:00,7.8,-7.8,30.40,NNE,12,1.0,1.0,48,0.00,,FEW200,0.00,VWS V14.01,2013-12-30 02:05:00,
2013-12-29 20:10:00,7.8,-7.8,30.40,NNE,12,0.0,0.0,48,0.00,,FEW200,0.00,VWS V14.01,2013-12-30 02:10:00,
2013-12-29 20:15:00,7.7,-7.9,30.40,NNE,12,0.0,0.0,48,0.00,,FEW200,0.00,VWS V14.01,2013-12-30 02:15:00,
2013-12-29 20:20:00,7.6,-8.0,30.40,NNE,12,2.0,2.0,48,0.00,,FEW200,0.00,VWS V14.01,2013-12-30 02:20:00,
2013-12-29 20:25:00,7.4,-7.3,30.40,NNE,12,0.0,0.0,50,0.00,,FEW200,0.00,VWS V14.01,2013-12-30 02:25:00,
2013-12-29 20:30:00,7.3,-7.8,30.40,NNE,12,0.0,0.0,49,0.00,,FEW200,0.00,VWS V14.01,2013-12-30 02:30:00,
2013-12-29 20:35:00,7.2,-7.9,30.40,NNE,12,0.0,0.0,49,0.00,,FEW200,0.00,VWS V14.01,2013-12-30 02:35:00,
2013-12-29 20:40:00,7.1,-7.6,30.40,NNE,12,0.0,0.0,50,0.00,,FEW200,0.00,VWS V14.01,2013-12-30 02:40:00,
2013-12-29 20:45:00,7.0,-6.9,30.40,NNE,12,1.0,2.0,52,0.00,,FEW200,0.00,VWS V14.01,2013-12-30 02:45:00,
2013-12-29 20:50:00,6.8,-7.1,30.40,NNE,12,0.0,0.0,52,0.00,,FEW200,0.00,VWS V14.01,2013-12-30 02:50:00,
2013-12-29 20:55:00,6.8,-7.1,30.39,NNE,12,0.0,2.0,52,0.00,,FEW200,0.00,VWS V14.01,2013-12-30 02:55:00,
2013-12-29 21:00:00,6.8,-7.5,30.40,NNE,12,0.0,1.0,51,0.00,,FEW200,0.00,VWS V14.01,2013-12-30 03:00:00,
2013-12-29 21:05:00,6.7,-7.2,30.39,NNE,12,1.0,2.0,52,0.00,,FEW200,0.00,VWS V14.01,2013-12-30 03:05:00,
2013-12-29 21:10:00,6.7,-7.2,30.39,NNE,12,1.0,2.0,52,0.00,,FEW200,0.00,VWS V14.01,2013-12-30 03:10:00,
2013-12-29 21:15:00,6.7,-7.6,30.39,NNE,12,2.0,4.0,51,0.00,,FEW200,0.00,VWS V14.01,2013-12-30 03:15:00,
2013-12-29 21:20:00,6.7,-8.0,30.39,NNE,14,3.0,3.0,50,0.00,,FEW200,0.00,VWS V14.01,2013-12-30 03:20:00,
2013-12-29 21:25:00,6.7,-8.0,30.39,NNE,16,1.0,2.0,50,0.00,,FEW200,0.00,VWS V14.01,2013-12-30 03:25:00,
2013-12-29 21:30:00,6.6,-8.1,30.39,NNE,15,1.0,3.0,50,0.00,,FEW200,0.00,VWS V14.01,2013-12-30 03:30:00,
2013-12-29 21:35:00,6.5,-8.2,30.39,NNE,16,2.0,2.0,50,0.00,,FEW200,0.00,VWS V14.01,2013-12-30 03:35:00,
2013-12-29 21:40:00,6.4,-8.3,30.39,NNE,16,2.0,3.0,50,0.00,,FEW200,0.00,VWS V14.01,2013-12-30 03:40:00,
2013-12-29 21:46:00,6.3,-8.4,30.38,NNE,26,4.0,4.0,50,0.00,,FEW200,0.00,VWS V14.01,2013-12-30 03:46:00,
2013-12-29 21:50:00,6.3,-8.4,30.38,NNE,18,1.0,2.0,50,0.00,,FEW200,0.00,VWS V14.01,2013-12-30 03:50:00,
2013-12-29 21:56:00,6.3,-8.4,30.38,NNE,18,3.0,3.0,50,0.00,,FEW200,0.00,VWS V14.01,2013-12-30 03:56:00,
2013-12-29 22:01:00,6.2,-8.4,30.38,NE,36,2.0,3.0,50,0.00,,FEW200,0.00,VWS V14.01,2013-12-30 04:01:00,
2013-12-29 22:06:00,6.2,-8.1,30.38,NE,48,0.0,1.0,51,0.00,,FEW200,0.00,VWS V14.01,2013-12-30 04:06:00,
2013-12-29 22:11:00,6.1,-8.1,30.39,NE,46,2.0,2.0,51,0.00,,FEW200,0.00,VWS V14.01,2013-12-30 04:11:00,
2013-12-29 22:16:00,6.0,-7.8,30.39,NE,46,2.0,2.0,52,0.00,,FEW200,0.00,VWS V14.01,2013-12-30 04:16:00,
2013-12-29 22:21:00,5.9,-8.3,30.38,NE,46,1.0,3.0,51,0.00,,FEW200,0.00,VWS V14.01,2013-12-30 04:21:00,
2013-12-29 22:26:00,5.8,-8.0,30.38,NE,46,1.0,2.0,52,0.00,,FEW200,0.00,VWS V14.01,2013-12-30 04:26:00,
2013-12-29 22:31:00,5.8,-8.0,30.38,NE,46,2.0,3.0,52,0.00,,FEW200,0.00,VWS V14.01,2013-12-30 04:31:00,
2013-12-29 22:36:00,5.6,-8.2,30.38,NE,45,0.0,1.0,52,0.00,,FEW200,0.00,VWS V14.01,2013-12-30 04:36:00,
2013-12-29 22:41:00,5.6,-8.2,30.38,NE,45,2.0,3.0,52,0.00,,SCT200,0.00,VWS V14.01,2013-12-30 04:41:00,
2013-12-29 22:46:00,5.6,-8.2,30.38,NE,45,2.0,3.0,52,0.00,,SCT200,0.00,VWS V14.01,2013-12-30 04:46:00,
2013-12-29 22:51:00,5.6,-8.2,30.39,NE,45,0.0,0.0,52,0.00,,SCT200,0.00,VWS V14.01,2013-12-30 04:51:00,
2013-12-29 22:56:00,5.5,-7.9,30.38,NE,45,0.0,1.0,53,0.00,,SCT200,0.00,VWS V14.01,2013-12-30 04:56:00,
2013-12-29 23:01:00,5.5,-7.5,30.38,NE,45,0.0,3.0,54,0.00,,SCT200,0.00,VWS V14.01,2013-12-30 05:01:00,
2013-12-29 23:02:00,5.5,-7.5,30.38,NE,45,1.0,1.0,54,0.00,,SCT200,0.00,VWS V14.01,2013-12-30 05:02:00,
2013-12-29 23:07:00,5.4,-8.0,30.38,NE,45,0.0,0.0,53,0.00,,SCT200,0.00,VWS V14.01,2013-12-30 05:07:00,
2013-12-29 23:12:00,5.4,-7.6,30.39,NE,45,0.0,0.0,54,0.00,,SCT200,0.00,VWS V14.01,2013-12-30 05:12:00,
2013-12-29 23:17:00,5.3,-7.3,30.39,NE,45,0.0,0.0,55,0.00,,SCT200,0.00,VWS V14.01,2013-12-30 05:17:00,
2013-12-29 23:22:00,5.2,-6.7,30.39,NE,45,0.0,1.0,57,0.00,,SCT200,0.00,VWS V14.01,2013-12-30 05:22:00,
2013-12-29 23:27:00,5.1,-5.7,30.39,NE,45,0.0,0.0,60,0.00,,SCT200,0.00,VWS V14.01,2013-12-30 05:27:00,
2013-12-29 23:32:00,4.9,-5.2,30.40,NE,45,0.0,0.0,62,0.00,,SCT200,0.00,VWS V14.01,2013-12-30 05:32:00,
2013-12-29 23:37:00,4.9,-4.9,30.40,SSE,164,0.0,2.0,63,0.00,,SCT200,0.00,VWS V14.01,2013-12-30 05:37:00,
2013-12-29 23:42:00,4.7,-5.1,30.40,SSE,164,0.0,1.0,63,0.00,,SCT200,0.00,VWS V14.01,2013-12-30 05:42:00,
2013-12-29 23:47:00,4.6,-5.5,30.39,SSE,164,0.0,0.0,62,0.00,,SCT200,0.00,VWS V14.01,2013-12-30 05:47:00,
2013-12-29 23:52:00,4.6,-5.9,30.39,SSE,164,0.0,0.0,61,0.00,,SCT200,0.00,VWS V14.01,2013-12-30 05:52:00,
2013-12-29 23:57:00,4.5,-6.3,30.39,SSW,198,0.0,0.0,60,0.00,,SCT200,0.00,VWS V14.01,2013-12-30 05:57:00,